sensor_id;sensor_type;location;lat;lon;timestamp;P1;durP1;ratioP1;P2;durP2;ratioP2
10303;SDS011;5197;48.152;8.590;2024-02-21T00:01:56;7.60;;;3.10;;
10303;SDS011;5197;48.152;8.590;2024-02-21T00:04:43;10.70;;;3.50;;
10303;SDS011;5197;48.152;8.590;2024-02-21T00:07:28;9.47;;;3.50;;
10303;SDS011;5197;48.152;8.590;2024-02-21T00:10:14;9.10;;;3.80;;
10303;SDS011;5197;48.152;8.590;2024-02-21T00:13:00;8.87;;;3.50;;
10303;SDS011;5197;48.152;8.590;2024-02-21T00:15:46;8.93;;;3.50;;
10303;SDS011;5197;48.152;8.590;2024-02-21T00:18:31;10.33;;;3.70;;
10303;SDS011;5197;48.152;8.590;2024-02-21T00:21:17;6.27;;;3.37;;
10303;SDS011;5197;48.152;8.590;2024-02-21T00:24:03;5.73;;;3.30;;
10303;SDS011;5197;48.152;8.590;2024-02-21T00:26:49;11.33;;;3.40;;
10303;SDS011;5197;48.152;8.590;2024-02-21T00:29:34;7.20;;;3.30;;
10303;SDS011;5197;48.152;8.590;2024-02-21T00:32:20;6.67;;;2.97;;
10303;SDS011;5197;48.152;8.590;2024-02-21T00:35:06;7.73;;;3.27;;
10303;SDS011;5197;48.152;8.590;2024-02-21T00:37:52;6.00;;;3.50;;
10303;SDS011;5197;48.152;8.590;2024-02-21T00:40:37;7.20;;;3.80;;
10303;SDS011;5197;48.152;8.590;2024-02-21T00:43:23;8.80;;;3.27;;
10303;SDS011;5197;48.152;8.590;2024-02-21T00:46:09;10.37;;;3.37;;
10303;SDS011;5197;48.152;8.590;2024-02-21T00:48:54;6.83;;;2.87;;
10303;SDS011;5197;48.152;8.590;2024-02-21T00:51:40;6.80;;;3.23;;
10303;SDS011;5197;48.152;8.590;2024-02-21T00:54:26;8.13;;;3.33;;
10303;SDS011;5197;48.152;8.590;2024-02-21T00:57:20;7.73;;;3.23;;
10303;SDS011;5197;48.152;8.590;2024-02-21T01:00:06;10.33;;;3.80;;
10303;SDS011;5197;48.152;8.590;2024-02-21T01:02:53;5.30;;;3.00;;
10303;SDS011;5197;48.152;8.590;2024-02-21T01:05:39;8.07;;;3.43;;
10303;SDS011;5197;48.152;8.590;2024-02-21T01:08:24;10.23;;;3.57;;
10303;SDS011;5197;48.152;8.590;2024-02-21T01:11:10;6.23;;;3.50;;
10303;SDS011;5197;48.152;8.590;2024-02-21T01:13:56;10.83;;;3.40;;
10303;SDS011;5197;48.152;8.590;2024-02-21T01:16:41;8.43;;;3.43;;
10303;SDS011;5197;48.152;8.590;2024-02-21T01:19:27;6.97;;;3.20;;
10303;SDS011;5197;48.152;8.590;2024-02-21T01:22:13;3.87;;;3.00;;
10303;SDS011;5197;48.152;8.590;2024-02-21T01:24:59;5.63;;;3.30;;
10303;SDS011;5197;48.152;8.590;2024-02-21T01:27:45;5.50;;;2.70;;
10303;SDS011;5197;48.152;8.590;2024-02-21T01:30:30;8.30;;;3.27;;
10303;SDS011;5197;48.152;8.590;2024-02-21T01:33:16;6.77;;;2.47;;
10303;SDS011;5197;48.152;8.590;2024-02-21T01:36:02;5.57;;;3.10;;
10303;SDS011;5197;48.152;8.590;2024-02-21T01:38:48;6.60;;;2.70;;
10303;SDS011;5197;48.152;8.590;2024-02-21T01:41:34;8.33;;;3.27;;
10303;SDS011;5197;48.152;8.590;2024-02-21T01:44:20;8.83;;;3.23;;
10303;SDS011;5197;48.152;8.590;2024-02-21T01:47:05;6.43;;;2.83;;
10303;SDS011;5197;48.152;8.590;2024-02-21T01:49:51;5.97;;;3.00;;
10303;SDS011;5197;48.152;8.590;2024-02-21T01:52:37;9.17;;;3.13;;
10303;SDS011;5197;48.152;8.590;2024-02-21T01:55:23;9.17;;;3.70;;
10303;SDS011;5197;48.152;8.590;2024-02-21T01:58:08;6.73;;;2.97;;
10303;SDS011;5197;48.152;8.590;2024-02-21T02:00:56;4.70;;;3.07;;
10303;SDS011;5197;48.152;8.590;2024-02-21T02:03:44;8.23;;;3.27;;
10303;SDS011;5197;48.152;8.590;2024-02-21T03:24:33;6.70;;;3.03;;
10303;SDS011;5197;48.152;8.590;2024-02-21T03:27:19;10.77;;;3.23;;
10303;SDS011;5197;48.152;8.590;2024-02-21T03:30:05;6.30;;;2.93;;
10303;SDS011;5197;48.152;8.590;2024-02-21T03:32:51;5.03;;;2.50;;
10303;SDS011;5197;48.152;8.590;2024-02-21T03:35:36;6.47;;;2.70;;
10303;SDS011;5197;48.152;8.590;2024-02-21T03:38:22;6.43;;;2.70;;
10303;SDS011;5197;48.152;8.590;2024-02-21T03:41:07;6.77;;;2.70;;
10303;SDS011;5197;48.152;8.590;2024-02-21T03:43:53;6.83;;;2.90;;
10303;SDS011;5197;48.152;8.590;2024-02-21T03:46:39;9.17;;;3.40;;
10303;SDS011;5197;48.152;8.590;2024-02-21T03:49:24;7.40;;;3.00;;
10303;SDS011;5197;48.152;8.590;2024-02-21T03:52:10;8.97;;;2.87;;
10303;SDS011;5197;48.152;8.590;2024-02-21T03:54:55;6.97;;;3.03;;
10303;SDS011;5197;48.152;8.590;2024-02-21T04:00:45;5.80;;;3.10;;
10303;SDS011;5197;48.152;8.590;2024-02-21T04:03:31;11.27;;;3.10;;
10303;SDS011;5197;48.152;8.590;2024-02-21T04:06:16;8.20;;;3.23;;
10303;SDS011;5197;48.152;8.590;2024-02-21T04:09:02;7.63;;;3.30;;
10303;SDS011;5197;48.152;8.590;2024-02-21T04:11:48;8.60;;;2.97;;
10303;SDS011;5197;48.152;8.590;2024-02-21T04:14:33;10.00;;;2.63;;
10303;SDS011;5197;48.152;8.590;2024-02-21T04:17:19;4.70;;;3.10;;
10303;SDS011;5197;48.152;8.590;2024-02-21T04:20:05;8.17;;;3.10;;
10303;SDS011;5197;48.152;8.590;2024-02-21T04:22:52;7.33;;;3.50;;
10303;SDS011;5197;48.152;8.590;2024-02-21T04:25:38;10.00;;;3.03;;
10303;SDS011;5197;48.152;8.590;2024-02-21T04:28:24;8.27;;;3.30;;
10303;SDS011;5197;48.152;8.590;2024-02-21T04:31:09;10.27;;;3.50;;
10303;SDS011;5197;48.152;8.590;2024-02-21T04:33:55;9.10;;;3.43;;
10303;SDS011;5197;48.152;8.590;2024-02-21T04:36:41;8.17;;;3.63;;
10303;SDS011;5197;48.152;8.590;2024-02-21T04:39:28;10.13;;;3.50;;
10303;SDS011;5197;48.152;8.590;2024-02-21T04:42:14;7.37;;;3.50;;
10303;SDS011;5197;48.152;8.590;2024-02-21T04:45:00;8.20;;;3.70;;
10303;SDS011;5197;48.152;8.590;2024-02-21T04:47:45;8.43;;;3.37;;
10303;SDS011;5197;48.152;8.590;2024-02-21T04:50:31;6.20;;;3.23;;
10303;SDS011;5197;48.152;8.590;2024-02-21T04:53:17;7.80;;;3.83;;
10303;SDS011;5197;48.152;8.590;2024-02-21T04:56:02;13.73;;;3.63;;
10303;SDS011;5197;48.152;8.590;2024-02-21T04:58:48;6.13;;;3.20;;
10303;SDS011;5197;48.152;8.590;2024-02-21T05:01:33;10.30;;;3.60;;
10303;SDS011;5197;48.152;8.590;2024-02-21T05:04:19;6.43;;;3.47;;
10303;SDS011;5197;48.152;8.590;2024-02-21T05:07:04;6.67;;;3.80;;
10303;SDS011;5197;48.152;8.590;2024-02-21T05:09:50;6.10;;;3.37;;
10303;SDS011;5197;48.152;8.590;2024-02-21T05:12:36;6.77;;;3.73;;
10303;SDS011;5197;48.152;8.590;2024-02-21T05:15:21;8.60;;;4.00;;
10303;SDS011;5197;48.152;8.590;2024-02-21T05:18:07;9.43;;;3.87;;
10303;SDS011;5197;48.152;8.590;2024-02-21T05:20:52;9.60;;;4.80;;
10303;SDS011;5197;48.152;8.590;2024-02-21T05:23:38;13.43;;;4.40;;
10303;SDS011;5197;48.152;8.590;2024-02-21T05:26:26;10.30;;;4.60;;
10303;SDS011;5197;48.152;8.590;2024-02-21T05:29:12;9.50;;;4.20;;
10303;SDS011;5197;48.152;8.590;2024-02-21T05:31:58;5.57;;;4.33;;
10303;SDS011;5197;48.152;8.590;2024-02-21T05:34:44;11.73;;;4.40;;
10303;SDS011;5197;48.152;8.590;2024-02-21T05:37:33;11.57;;;5.90;;
10303;SDS011;5197;48.152;8.590;2024-02-21T05:40:18;11.57;;;6.07;;
10303;SDS011;5197;48.152;8.590;2024-02-21T05:43:04;9.03;;;5.17;;
10303;SDS011;5197;48.152;8.590;2024-02-21T05:45:50;14.40;;;5.17;;
10303;SDS011;5197;48.152;8.590;2024-02-21T05:48:35;8.37;;;4.60;;
10303;SDS011;5197;48.152;8.590;2024-02-21T05:51:24;10.83;;;4.50;;
10303;SDS011;5197;48.152;8.590;2024-02-21T05:54:09;10.87;;;4.80;;
10303;SDS011;5197;48.152;8.590;2024-02-21T05:56:55;7.93;;;4.50;;
10303;SDS011;5197;48.152;8.590;2024-02-21T05:59:41;13.30;;;5.77;;
10303;SDS011;5197;48.152;8.590;2024-02-21T06:02:28;9.10;;;4.87;;
10303;SDS011;5197;48.152;8.590;2024-02-21T06:05:13;9.80;;;4.20;;
10303;SDS011;5197;48.152;8.590;2024-02-21T06:07:59;10.80;;;5.43;;
10303;SDS011;5197;48.152;8.590;2024-02-21T06:10:45;8.70;;;4.93;;
10303;SDS011;5197;48.152;8.590;2024-02-21T06:13:30;8.60;;;4.70;;
10303;SDS011;5197;48.152;8.590;2024-02-21T06:16:16;13.30;;;5.57;;
10303;SDS011;5197;48.152;8.590;2024-02-21T06:19:01;13.70;;;5.20;;
10303;SDS011;5197;48.152;8.590;2024-02-21T06:21:50;12.10;;;4.97;;
10303;SDS011;5197;48.152;8.590;2024-02-21T06:24:36;10.60;;;5.03;;
10303;SDS011;5197;48.152;8.590;2024-02-21T06:27:21;9.73;;;5.23;;
10303;SDS011;5197;48.152;8.590;2024-02-21T06:30:07;10.67;;;5.63;;
10303;SDS011;5197;48.152;8.590;2024-02-21T06:32:53;12.27;;;6.37;;
10303;SDS011;5197;48.152;8.590;2024-02-21T06:35:41;10.20;;;5.80;;
10303;SDS011;5197;48.152;8.590;2024-02-21T06:38:28;15.70;;;6.53;;
10303;SDS011;5197;48.152;8.590;2024-02-21T06:41:17;13.17;;;5.90;;
10303;SDS011;5197;48.152;8.590;2024-02-21T06:44:04;13.77;;;6.13;;
10303;SDS011;5197;48.152;8.590;2024-02-21T06:46:49;12.97;;;6.13;;
10303;SDS011;5197;48.152;8.590;2024-02-21T06:49:35;8.87;;;5.47;;
10303;SDS011;5197;48.152;8.590;2024-02-21T06:52:24;13.60;;;6.30;;
10303;SDS011;5197;48.152;8.590;2024-02-21T06:55:10;11.97;;;5.43;;
10303;SDS011;5197;48.152;8.590;2024-02-21T06:57:56;11.83;;;5.90;;
10303;SDS011;5197;48.152;8.590;2024-02-21T07:00:42;15.83;;;6.30;;
10303;SDS011;5197;48.152;8.590;2024-02-21T07:03:28;14.43;;;6.23;;
10303;SDS011;5197;48.152;8.590;2024-02-21T07:06:13;14.33;;;7.17;;
10303;SDS011;5197;48.152;8.590;2024-02-21T07:08:59;10.03;;;6.40;;
10303;SDS011;5197;48.152;8.590;2024-02-21T07:11:44;12.07;;;6.57;;
10303;SDS011;5197;48.152;8.590;2024-02-21T07:14:32;16.93;;;6.57;;
10303;SDS011;5197;48.152;8.590;2024-02-21T07:17:17;10.93;;;6.27;;
10303;SDS011;5197;48.152;8.590;2024-02-21T07:20:03;8.27;;;5.33;;
10303;SDS011;5197;48.152;8.590;2024-02-21T07:22:49;11.50;;;5.20;;
10303;SDS011;5197;48.152;8.590;2024-02-21T07:25:34;9.00;;;5.23;;
10303;SDS011;5197;48.152;8.590;2024-02-21T07:28:20;7.60;;;4.70;;
10303;SDS011;5197;48.152;8.590;2024-02-21T07:31:06;12.50;;;4.63;;
10303;SDS011;5197;48.152;8.590;2024-02-21T07:33:52;6.57;;;4.20;;
10303;SDS011;5197;48.152;8.590;2024-02-21T07:36:37;9.60;;;4.33;;
10303;SDS011;5197;48.152;8.590;2024-02-21T07:39:24;4.83;;;3.90;;
10303;SDS011;5197;48.152;8.590;2024-02-21T07:42:09;7.93;;;4.07;;
10303;SDS011;5197;48.152;8.590;2024-02-21T07:44:55;10.13;;;4.77;;
10303;SDS011;5197;48.152;8.590;2024-02-21T07:47:41;13.47;;;4.50;;
10303;SDS011;5197;48.152;8.590;2024-02-21T07:50:27;6.63;;;4.30;;
10303;SDS011;5197;48.152;8.590;2024-02-21T07:53:14;7.90;;;4.33;;
10303;SDS011;5197;48.152;8.590;2024-02-21T07:55:59;8.57;;;4.57;;
10303;SDS011;5197;48.152;8.590;2024-02-21T07:58:45;9.77;;;4.27;;
10303;SDS011;5197;48.152;8.590;2024-02-21T08:01:31;17.30;;;4.80;;
10303;SDS011;5197;48.152;8.590;2024-02-21T08:04:16;9.47;;;4.33;;
10303;SDS011;5197;48.152;8.590;2024-02-21T08:07:02;8.97;;;4.33;;
10303;SDS011;5197;48.152;8.590;2024-02-21T08:09:49;12.50;;;4.10;;
10303;SDS011;5197;48.152;8.590;2024-02-21T08:12:34;12.73;;;3.97;;
10303;SDS011;5197;48.152;8.590;2024-02-21T08:15:21;8.63;;;4.17;;
10303;SDS011;5197;48.152;8.590;2024-02-21T08:18:09;9.07;;;4.47;;
10303;SDS011;5197;48.152;8.590;2024-02-21T08:20:55;8.50;;;4.03;;
10303;SDS011;5197;48.152;8.590;2024-02-21T08:23:40;8.83;;;4.23;;
10303;SDS011;5197;48.152;8.590;2024-02-21T08:26:26;8.37;;;4.03;;
10303;SDS011;5197;48.152;8.590;2024-02-21T08:29:15;6.87;;;3.80;;
10303;SDS011;5197;48.152;8.590;2024-02-21T08:32:01;8.47;;;3.57;;
10303;SDS011;5197;48.152;8.590;2024-02-21T08:34:46;5.53;;;3.67;;
10303;SDS011;5197;48.152;8.590;2024-02-21T08:37:32;6.50;;;3.43;;
10303;SDS011;5197;48.152;8.590;2024-02-21T08:40:18;10.27;;;4.27;;
10303;SDS011;5197;48.152;8.590;2024-02-21T08:43:06;15.63;;;4.13;;
10303;SDS011;5197;48.152;8.590;2024-02-21T08:45:51;11.27;;;3.97;;
10303;SDS011;5197;48.152;8.590;2024-02-21T08:48:37;3.70;;;3.40;;
10303;SDS011;5197;48.152;8.590;2024-02-21T08:51:23;8.83;;;3.57;;
10303;SDS011;5197;48.152;8.590;2024-02-21T08:54:08;6.10;;;3.60;;
10303;SDS011;5197;48.152;8.590;2024-02-21T08:56:54;8.30;;;3.73;;
10303;SDS011;5197;48.152;8.590;2024-02-21T08:59:41;7.73;;;4.23;;
10303;SDS011;5197;48.152;8.590;2024-02-21T09:02:27;12.27;;;4.40;;
10303;SDS011;5197;48.152;8.590;2024-02-21T09:05:12;7.03;;;4.47;;
10303;SDS011;5197;48.152;8.590;2024-02-21T09:07:58;13.03;;;4.40;;
10303;SDS011;5197;48.152;8.590;2024-02-21T09:10:43;7.67;;;4.47;;
10303;SDS011;5197;48.152;8.590;2024-02-21T09:13:29;8.23;;;4.07;;
10303;SDS011;5197;48.152;8.590;2024-02-21T09:16:14;10.50;;;4.57;;
10303;SDS011;5197;48.152;8.590;2024-02-21T09:19:00;9.73;;;4.00;;
10303;SDS011;5197;48.152;8.590;2024-02-21T09:21:46;7.63;;;4.20;;
10303;SDS011;5197;48.152;8.590;2024-02-21T09:24:31;6.80;;;3.67;;
10303;SDS011;5197;48.152;8.590;2024-02-21T09:27:17;6.27;;;3.47;;
10303;SDS011;5197;48.152;8.590;2024-02-21T09:30:02;5.77;;;3.60;;
10303;SDS011;5197;48.152;8.590;2024-02-21T09:32:50;6.33;;;3.40;;
10303;SDS011;5197;48.152;8.590;2024-02-21T09:35:35;7.07;;;3.60;;
10303;SDS011;5197;48.152;8.590;2024-02-21T09:38:21;4.87;;;2.83;;
10303;SDS011;5197;48.152;8.590;2024-02-21T09:41:17;10.47;;;3.20;;
10303;SDS011;5197;48.152;8.590;2024-02-21T09:44:41;4.80;;;2.80;;
10303;SDS011;5197;48.152;8.590;2024-02-21T09:48:15;5.37;;;2.80;;
10303;SDS011;5197;48.152;8.590;2024-02-21T09:50:52;3.47;;;2.70;;
10303;SDS011;5197;48.152;8.590;2024-02-21T09:53:40;4.30;;;2.80;;
10303;SDS011;5197;48.152;8.590;2024-02-21T09:56:43;6.47;;;2.60;;
10303;SDS011;5197;48.152;8.590;2024-02-21T09:59:32;3.13;;;2.23;;
10303;SDS011;5197;48.152;8.590;2024-02-21T10:02:18;6.20;;;3.00;;
10303;SDS011;5197;48.152;8.590;2024-02-21T10:05:04;3.37;;;2.10;;
10303;SDS011;5197;48.152;8.590;2024-02-21T10:07:53;3.47;;;2.30;;
10303;SDS011;5197;48.152;8.590;2024-02-21T10:10:41;4.13;;;1.90;;
10303;SDS011;5197;48.152;8.590;2024-02-21T10:13:30;2.50;;;2.20;;
10303;SDS011;5197;48.152;8.590;2024-02-21T10:16:16;4.70;;;2.27;;
10303;SDS011;5197;48.152;8.590;2024-02-21T10:19:02;3.20;;;1.97;;
10303;SDS011;5197;48.152;8.590;2024-02-21T10:22:02;2.53;;;1.80;;
10303;SDS011;5197;48.152;8.590;2024-02-21T10:24:53;1.83;;;1.70;;
10303;SDS011;5197;48.152;8.590;2024-02-21T10:27:40;4.27;;;2.03;;
10303;SDS011;5197;48.152;8.590;2024-02-21T10:30:26;1.90;;;1.70;;
10303;SDS011;5197;48.152;8.590;2024-02-21T10:33:12;2.90;;;2.00;;
10303;SDS011;5197;48.152;8.590;2024-02-21T10:36:10;2.93;;;2.03;;
10303;SDS011;5197;48.152;8.590;2024-02-21T10:38:56;2.57;;;2.07;;
10303;SDS011;5197;48.152;8.590;2024-02-21T10:41:41;2.33;;;1.70;;
10303;SDS011;5197;48.152;8.590;2024-02-21T10:44:28;1.77;;;1.67;;
10303;SDS011;5197;48.152;8.590;2024-02-21T10:47:15;2.10;;;1.80;;
10303;SDS011;5197;48.152;8.590;2024-02-21T10:50:06;5.63;;;1.90;;
10303;SDS011;5197;48.152;8.590;2024-02-21T10:53:09;3.97;;;1.80;;
10303;SDS011;5197;48.152;8.590;2024-02-21T10:56:29;2.00;;;1.80;;
10303;SDS011;5197;48.152;8.590;2024-02-21T10:59:22;2.80;;;2.07;;
10303;SDS011;5197;48.152;8.590;2024-02-21T11:02:08;3.07;;;2.20;;
10303;SDS011;5197;48.152;8.590;2024-02-21T11:04:54;2.83;;;2.30;;
10303;SDS011;5197;48.152;8.590;2024-02-21T11:07:40;4.30;;;2.07;;
10303;SDS011;5197;48.152;8.590;2024-02-21T11:10:26;9.67;;;2.33;;
10303;SDS011;5197;48.152;8.590;2024-02-21T11:13:12;1.90;;;1.80;;
10303;SDS011;5197;48.152;8.590;2024-02-21T11:19:03;4.10;;;2.27;;
10303;SDS011;5197;48.152;8.590;2024-02-21T11:21:50;3.97;;;2.30;;
10303;SDS011;5197;48.152;8.590;2024-02-21T11:24:36;3.00;;;1.90;;
10303;SDS011;5197;48.152;8.590;2024-02-21T11:27:22;2.90;;;2.63;;
10303;SDS011;5197;48.152;8.590;2024-02-21T11:30:11;4.20;;;2.90;;
10303;SDS011;5197;48.152;8.590;2024-02-21T11:33:02;4.17;;;2.53;;
10303;SDS011;5197;48.152;8.590;2024-02-21T11:35:48;2.23;;;2.10;;
10303;SDS011;5197;48.152;8.590;2024-02-21T11:38:34;2.53;;;2.33;;
10303;SDS011;5197;48.152;8.590;2024-02-21T11:41:19;2.50;;;2.30;;
10303;SDS011;5197;48.152;8.590;2024-02-21T11:44:08;2.80;;;2.40;;
10303;SDS011;5197;48.152;8.590;2024-02-21T11:46:53;2.53;;;2.00;;
10303;SDS011;5197;48.152;8.590;2024-02-21T11:49:44;7.07;;;2.30;;
10303;SDS011;5197;48.152;8.590;2024-02-21T11:52:32;2.03;;;1.93;;
10303;SDS011;5197;48.152;8.590;2024-02-21T11:55:17;2.73;;;1.90;;
10303;SDS011;5197;48.152;8.590;2024-02-21T11:58:03;3.00;;;2.00;;
10303;SDS011;5197;48.152;8.590;2024-02-21T12:00:49;3.23;;;2.07;;
10303;SDS011;5197;48.152;8.590;2024-02-21T12:03:35;2.43;;;1.87;;
10303;SDS011;5197;48.152;8.590;2024-02-21T12:06:20;5.87;;;2.60;;
10303;SDS011;5197;48.152;8.590;2024-02-21T12:09:07;2.50;;;2.27;;
10303;SDS011;5197;48.152;8.590;2024-02-21T12:11:57;4.10;;;2.37;;
10303;SDS011;5197;48.152;8.590;2024-02-21T12:14:44;5.37;;;1.97;;
10303;SDS011;5197;48.152;8.590;2024-02-21T12:17:33;3.93;;;2.23;;
10303;SDS011;5197;48.152;8.590;2024-02-21T12:20:22;3.53;;;2.23;;
10303;SDS011;5197;48.152;8.590;2024-02-21T12:23:10;3.67;;;2.20;;
10303;SDS011;5197;48.152;8.590;2024-02-21T12:25:56;2.93;;;2.47;;
10303;SDS011;5197;48.152;8.590;2024-02-21T12:28:44;4.27;;;2.50;;
10303;SDS011;5197;48.152;8.590;2024-02-21T12:31:29;2.50;;;2.20;;
10303;SDS011;5197;48.152;8.590;2024-02-21T12:34:15;3.90;;;2.60;;
10303;SDS011;5197;48.152;8.590;2024-02-21T12:37:11;2.83;;;2.50;;
10303;SDS011;5197;48.152;8.590;2024-02-21T12:39:59;4.70;;;2.27;;
10303;SDS011;5197;48.152;8.590;2024-02-21T12:42:44;2.30;;;2.10;;
10303;SDS011;5197;48.152;8.590;2024-02-21T12:45:30;2.83;;;2.43;;
10303;SDS011;5197;48.152;8.590;2024-02-21T12:48:16;4.17;;;2.50;;
10303;SDS011;5197;48.152;8.590;2024-02-21T12:51:01;3.63;;;2.40;;
10303;SDS011;5197;48.152;8.590;2024-02-21T12:53:47;5.90;;;2.57;;
10303;SDS011;5197;48.152;8.590;2024-02-21T12:56:34;6.50;;;2.37;;
10303;SDS011;5197;48.152;8.590;2024-02-21T12:59:19;4.17;;;2.93;;
10303;SDS011;5197;48.152;8.590;2024-02-21T13:02:06;4.43;;;2.93;;
10303;SDS011;5197;48.152;8.590;2024-02-21T13:04:51;3.80;;;2.93;;
10303;SDS011;5197;48.152;8.590;2024-02-21T13:07:37;4.57;;;2.70;;
10303;SDS011;5197;48.152;8.590;2024-02-21T13:10:25;3.43;;;2.50;;
10303;SDS011;5197;48.152;8.590;2024-02-21T13:13:10;5.07;;;2.87;;
10303;SDS011;5197;48.152;8.590;2024-02-21T13:15:57;3.47;;;2.43;;
10303;SDS011;5197;48.152;8.590;2024-02-21T13:18:43;4.93;;;2.37;;
10303;SDS011;5197;48.152;8.590;2024-02-21T13:21:30;2.73;;;2.47;;
10303;SDS011;5197;48.152;8.590;2024-02-21T13:24:15;2.60;;;2.40;;
10303;SDS011;5197;48.152;8.590;2024-02-21T13:27:01;5.10;;;2.80;;
10303;SDS011;5197;48.152;8.590;2024-02-21T13:29:48;3.43;;;2.40;;
10303;SDS011;5197;48.152;8.590;2024-02-21T13:32:34;3.40;;;2.50;;
10303;SDS011;5197;48.152;8.590;2024-02-21T13:35:19;4.00;;;2.60;;
10303;SDS011;5197;48.152;8.590;2024-02-21T13:38:05;4.20;;;2.40;;
10303;SDS011;5197;48.152;8.590;2024-02-21T13:40:51;4.67;;;2.30;;
10303;SDS011;5197;48.152;8.590;2024-02-21T13:43:36;2.30;;;2.13;;
10303;SDS011;5197;48.152;8.590;2024-02-21T13:46:22;2.80;;;2.50;;
10303;SDS011;5197;48.152;8.590;2024-02-21T13:49:08;3.80;;;2.63;;
10303;SDS011;5197;48.152;8.590;2024-02-21T13:51:53;4.40;;;2.50;;
10303;SDS011;5197;48.152;8.590;2024-02-21T13:54:39;4.73;;;2.80;;
10303;SDS011;5197;48.152;8.590;2024-02-21T13:57:25;4.43;;;2.90;;
10303;SDS011;5197;48.152;8.590;2024-02-21T14:00:11;3.73;;;2.17;;
10303;SDS011;5197;48.152;8.590;2024-02-21T14:02:56;2.43;;;2.23;;
10303;SDS011;5197;48.152;8.590;2024-02-21T14:05:43;4.33;;;2.20;;
10303;SDS011;5197;48.152;8.590;2024-02-21T14:08:28;2.20;;;2.10;;
10303;SDS011;5197;48.152;8.590;2024-02-21T14:11:14;3.97;;;2.53;;
10303;SDS011;5197;48.152;8.590;2024-02-21T14:13:59;4.90;;;2.70;;
10303;SDS011;5197;48.152;8.590;2024-02-21T14:16:45;5.30;;;2.90;;
10303;SDS011;5197;48.152;8.590;2024-02-21T14:19:33;4.93;;;2.80;;
10303;SDS011;5197;48.152;8.590;2024-02-21T14:22:18;3.13;;;2.30;;
10303;SDS011;5197;48.152;8.590;2024-02-21T14:25:04;5.17;;;2.63;;
10303;SDS011;5197;48.152;8.590;2024-02-21T14:27:50;4.10;;;2.13;;
10303;SDS011;5197;48.152;8.590;2024-02-21T14:30:36;4.27;;;2.90;;
10303;SDS011;5197;48.152;8.590;2024-02-21T14:33:21;2.80;;;2.60;;
10303;SDS011;5197;48.152;8.590;2024-02-21T14:36:07;4.57;;;2.73;;
10303;SDS011;5197;48.152;8.590;2024-02-21T14:38:53;3.33;;;2.60;;
10303;SDS011;5197;48.152;8.590;2024-02-21T14:41:38;2.80;;;2.47;;
10303;SDS011;5197;48.152;8.590;2024-02-21T14:44:24;4.83;;;3.10;;
10303;SDS011;5197;48.152;8.590;2024-02-21T14:47:10;2.53;;;2.33;;
10303;SDS011;5197;48.152;8.590;2024-02-21T14:49:55;4.40;;;2.90;;
10303;SDS011;5197;48.152;8.590;2024-02-21T14:52:41;3.10;;;2.90;;
10303;SDS011;5197;48.152;8.590;2024-02-21T14:55:29;9.67;;;2.93;;
10303;SDS011;5197;48.152;8.590;2024-02-21T14:58:15;5.37;;;3.23;;
10303;SDS011;5197;48.152;8.590;2024-02-21T15:01:03;6.17;;;3.80;;
10303;SDS011;5197;48.152;8.590;2024-02-21T15:03:48;4.87;;;3.33;;
10303;SDS011;5197;48.152;8.590;2024-02-21T15:06:34;6.90;;;3.40;;
10303;SDS011;5197;48.152;8.590;2024-02-21T15:09:22;8.57;;;3.00;;
10303;SDS011;5197;48.152;8.590;2024-02-21T15:12:08;5.40;;;2.87;;
10303;SDS011;5197;48.152;8.590;2024-02-21T15:14:54;2.87;;;2.67;;
10303;SDS011;5197;48.152;8.590;2024-02-21T15:17:40;3.37;;;2.50;;
10303;SDS011;5197;48.152;8.590;2024-02-21T15:20:25;4.43;;;2.27;;
10303;SDS011;5197;48.152;8.590;2024-02-21T15:23:13;3.53;;;2.40;;
10303;SDS011;5197;48.152;8.590;2024-02-21T15:25:58;2.43;;;2.23;;
10303;SDS011;5197;48.152;8.590;2024-02-21T15:28:46;4.80;;;3.30;;
10303;SDS011;5197;48.152;8.590;2024-02-21T15:31:31;5.23;;;2.30;;
10303;SDS011;5197;48.152;8.590;2024-02-21T15:34:17;5.23;;;3.07;;
10303;SDS011;5197;48.152;8.590;2024-02-21T15:37:03;7.20;;;4.33;;
10303;SDS011;5197;48.152;8.590;2024-02-21T15:39:49;4.90;;;2.87;;
10303;SDS011;5197;48.152;8.590;2024-02-21T15:42:34;4.00;;;2.80;;
10303;SDS011;5197;48.152;8.590;2024-02-21T15:45:20;3.37;;;2.67;;
10303;SDS011;5197;48.152;8.590;2024-02-21T15:48:06;5.37;;;2.93;;
10303;SDS011;5197;48.152;8.590;2024-02-21T15:50:52;5.47;;;2.60;;
10303;SDS011;5197;48.152;8.590;2024-02-21T15:53:39;3.87;;;2.60;;
10303;SDS011;5197;48.152;8.590;2024-02-21T15:56:29;2.50;;;2.30;;
10303;SDS011;5197;48.152;8.590;2024-02-21T15:59:15;5.03;;;3.00;;
10303;SDS011;5197;48.152;8.590;2024-02-21T16:02:00;3.13;;;2.80;;
10303;SDS011;5197;48.152;8.590;2024-02-21T16:04:46;3.23;;;2.40;;
10303;SDS011;5197;48.152;8.590;2024-02-21T16:07:32;2.93;;;2.60;;
10303;SDS011;5197;48.152;8.590;2024-02-21T16:10:19;2.83;;;2.63;;
10303;SDS011;5197;48.152;8.590;2024-02-21T16:13:04;6.07;;;4.07;;
10303;SDS011;5197;48.152;8.590;2024-02-21T16:15:51;2.80;;;2.50;;
10303;SDS011;5197;48.152;8.590;2024-02-21T16:18:37;2.97;;;2.67;;
10303;SDS011;5197;48.152;8.590;2024-02-21T16:21:22;4.43;;;2.40;;
10303;SDS011;5197;48.152;8.590;2024-02-21T16:24:09;34.77;;;16.97;;
10303;SDS011;5197;48.152;8.590;2024-02-21T16:26:55;20.30;;;11.83;;
10303;SDS011;5197;48.152;8.590;2024-02-21T16:29:41;11.27;;;7.17;;
10303;SDS011;5197;48.152;8.590;2024-02-21T16:32:26;4.93;;;3.47;;
10303;SDS011;5197;48.152;8.590;2024-02-21T16:35:12;7.10;;;3.47;;
10303;SDS011;5197;48.152;8.590;2024-02-21T16:37:58;5.30;;;4.20;;
10303;SDS011;5197;48.152;8.590;2024-02-21T16:40:47;6.53;;;4.73;;
10303;SDS011;5197;48.152;8.590;2024-02-21T16:43:34;7.50;;;5.17;;
10303;SDS011;5197;48.152;8.590;2024-02-21T16:46:19;10.27;;;5.40;;
10303;SDS011;5197;48.152;8.590;2024-02-21T16:49:05;5.87;;;4.33;;
10303;SDS011;5197;48.152;8.590;2024-02-21T16:51:52;6.77;;;4.30;;
10303;SDS011;5197;48.152;8.590;2024-02-21T16:54:37;6.77;;;4.20;;
10303;SDS011;5197;48.152;8.590;2024-02-21T16:57:23;4.57;;;4.10;;
10303;SDS011;5197;48.152;8.590;2024-02-21T17:00:08;4.20;;;3.80;;
10303;SDS011;5197;48.152;8.590;2024-02-21T17:02:58;4.03;;;3.17;;
10303;SDS011;5197;48.152;8.590;2024-02-21T17:05:44;5.70;;;3.20;;
10303;SDS011;5197;48.152;8.590;2024-02-21T17:08:41;5.17;;;4.10;;
10303;SDS011;5197;48.152;8.590;2024-02-21T17:11:27;9.97;;;4.40;;
10303;SDS011;5197;48.152;8.590;2024-02-21T17:14:12;7.07;;;4.27;;
10303;SDS011;5197;48.152;8.590;2024-02-21T17:16:58;8.47;;;4.20;;
10303;SDS011;5197;48.152;8.590;2024-02-21T17:19:46;7.63;;;4.00;;
10303;SDS011;5197;48.152;8.590;2024-02-21T17:22:32;7.67;;;4.67;;
10303;SDS011;5197;48.152;8.590;2024-02-21T17:25:18;4.90;;;4.10;;
10303;SDS011;5197;48.152;8.590;2024-02-21T17:28:04;3.57;;;3.27;;
10303;SDS011;5197;48.152;8.590;2024-02-21T17:30:50;7.27;;;4.97;;
10303;SDS011;5197;48.152;8.590;2024-02-21T17:33:36;5.57;;;4.43;;
10303;SDS011;5197;48.152;8.590;2024-02-21T17:36:22;5.63;;;3.80;;
10303;SDS011;5197;48.152;8.590;2024-02-21T17:39:07;5.10;;;3.50;;
10303;SDS011;5197;48.152;8.590;2024-02-21T17:41:54;7.50;;;4.17;;
10303;SDS011;5197;48.152;8.590;2024-02-21T17:44:41;6.33;;;4.00;;
10303;SDS011;5197;48.152;8.590;2024-02-21T17:47:30;12.87;;;5.37;;
10303;SDS011;5197;48.152;8.590;2024-02-21T17:50:16;10.83;;;5.30;;
10303;SDS011;5197;48.152;8.590;2024-02-21T17:53:02;4.20;;;3.70;;
10303;SDS011;5197;48.152;8.590;2024-02-21T17:55:49;4.37;;;3.40;;
10303;SDS011;5197;48.152;8.590;2024-02-21T17:58:34;5.17;;;3.60;;
10303;SDS011;5197;48.152;8.590;2024-02-21T18:01:25;4.40;;;3.37;;
10303;SDS011;5197;48.152;8.590;2024-02-21T18:04:12;3.53;;;3.20;;
10303;SDS011;5197;48.152;8.590;2024-02-21T18:06:57;5.07;;;4.07;;
10303;SDS011;5197;48.152;8.590;2024-02-21T18:09:43;4.37;;;3.50;;
10303;SDS011;5197;48.152;8.590;2024-02-21T18:12:29;4.43;;;3.67;;
10303;SDS011;5197;48.152;8.590;2024-02-21T18:15:17;5.80;;;3.13;;
10303;SDS011;5197;48.152;8.590;2024-02-21T18:18:05;4.00;;;3.07;;
10303;SDS011;5197;48.152;8.590;2024-02-21T18:20:52;5.20;;;4.17;;